South Haven, MI (49090)

4:23 PM EDT on September 04, 2015 (GMT -0400)
South Haven | | Change Station
CLOSE
Current Station
Airport
Location: South Haven,
Elevation: 666 ft
Nearby Weather Stations

Elev 666 ft 42.35 °N, 86.26 °W | Updated 8 minutes ago

Scattered Clouds
Scattered Clouds
75 °F
Feels Like 75 °F
N
8
Wind Variable Wind from West

Today
High -- | Low -- °F
--% Chance of Precip.
Yesterday
High -- | Low -- °F
Precip. -- in
7:13 AM 8:14 PM
Waning Gibbous, 56% visible
Pressure 30.03 in
Visibility 10.0 miles
Clouds Scattered Clouds 1200 ft
Dew Point 65 °F
Humidity 72%
Rainfall 0.00 in
Snow Depth Not available.
UV 4 out of 12
Pollen 8.40 out of 12
Air Quality Not available.
Flu Activity Not available.
METAR KLWA 042015Z AUTO 27007KT 10SM SCT012 24/19 A3003 RMK AO2 T02380185
Pressure 30.03 in
Visibility 10.0 miles
Clouds Scattered Clouds 1200 ft
Dew Point 65 °F
Humidity 72%
Rainfall 0.00 in
Snow Depth Not available.
UV 4 out of 12
Pollen 8.40 out of 12
Air Quality Not available.
Flu Activity Not available.
METAR KLWA 042015Z AUTO 27007KT 10SM SCT012 24/19 A3003 RMK AO2 T02380185

10-Day Weather Forecast

×

Almanac

Astronomy

Sep. 04, 2015 Rise Set
Actual Time
Civil Twilight
Nautical Twilight
Astronomical Twilight
Moon
Length of Visible Light
Length of Day
Tomorrow will be .
, % of the Moon is Illuminated

Today's Extremes

State Highs State Lows

Community

WunderPhotos

Upload Photos

1,852,272 photos uploaded!

WunderBlogs® & News

Nearby

Air Quality

  Air Quality AQ Index Pollutant
Not available.

Snow Depth

Station Depth Elevation

Earthquake Activity

City Distance Mag. Time & Date
Minimum magnitude displayed is 2.5.

Coastal Water Temperatures

Place Temperature

Stations

Nearby Weather Stations

Station Location Temp. Windchill Dew Point Humidity Wind Precip. Elev Updated Type